sensor_id;sensor_type;location;lat;lon;timestamp;P1;durP1;ratioP1;P2;durP2;ratioP2
10461;SDS011;5278;42.656;23.374;2023-03-19T00:01:53;21.00;;;11.53;;
10461;SDS011;5278;42.656;23.374;2023-03-19T00:04:21;16.47;;;11.97;;
10461;SDS011;5278;42.656;23.374;2023-03-19T00:06:50;21.57;;;13.33;;
10461;SDS011;5278;42.656;23.374;2023-03-19T00:09:17;22.00;;;12.87;;
10461;SDS011;5278;42.656;23.374;2023-03-19T00:11:45;18.17;;;12.43;;
10461;SDS011;5278;42.656;23.374;2023-03-19T00:14:12;17.20;;;11.50;;
10461;SDS011;5278;42.656;23.374;2023-03-19T00:16:39;18.43;;;12.23;;
10461;SDS011;5278;42.656;23.374;2023-03-19T00:19:06;21.63;;;13.37;;
10461;SDS011;5278;42.656;23.374;2023-03-19T00:21:34;15.93;;;11.77;;
10461;SDS011;5278;42.656;23.374;2023-03-19T00:24:03;20.40;;;11.83;;
10461;SDS011;5278;42.656;23.374;2023-03-19T00:26:31;16.33;;;11.17;;
10461;SDS011;5278;42.656;23.374;2023-03-19T00:28:59;21.80;;;12.90;;
10461;SDS011;5278;42.656;23.374;2023-03-19T00:31:27;21.53;;;13.07;;
10461;SDS011;5278;42.656;23.374;2023-03-19T00:33:55;21.23;;;12.07;;
10461;SDS011;5278;42.656;23.374;2023-03-19T00:36:23;22.33;;;12.93;;
10461;SDS011;5278;42.656;23.374;2023-03-19T00:38:51;21.77;;;13.07;;
10461;SDS011;5278;42.656;23.374;2023-03-19T00:41:20;22.90;;;12.03;;
10461;SDS011;5278;42.656;23.374;2023-03-19T00:43:50;16.67;;;11.33;;
10461;SDS011;5278;42.656;23.374;2023-03-19T00:46:19;18.30;;;11.10;;
10461;SDS011;5278;42.656;23.374;2023-03-19T00:48:47;21.73;;;12.57;;
10461;SDS011;5278;42.656;23.374;2023-03-19T00:51:15;20.20;;;10.73;;
10461;SDS011;5278;42.656;23.374;2023-03-19T00:53:42;22.73;;;11.93;;
10461;SDS011;5278;42.656;23.374;2023-03-19T00:56:09;19.23;;;10.63;;
10461;SDS011;5278;42.656;23.374;2023-03-19T00:58:40;22.60;;;11.70;;
10461;SDS011;5278;42.656;23.374;2023-03-19T01:01:07;17.07;;;10.33;;
10461;SDS011;5278;42.656;23.374;2023-03-19T01:03:36;15.23;;;9.17;;
10461;SDS011;5278;42.656;23.374;2023-03-19T01:06:03;16.53;;;10.53;;
10461;SDS011;5278;42.656;23.374;2023-03-19T01:08:31;20.20;;;10.47;;
10461;SDS011;5278;42.656;23.374;2023-03-19T01:11:03;15.27;;;9.97;;
10461;SDS011;5278;42.656;23.374;2023-03-19T01:13:31;14.87;;;10.50;;
10461;SDS011;5278;42.656;23.374;2023-03-19T01:16:00;17.13;;;10.70;;
10461;SDS011;5278;42.656;23.374;2023-03-19T01:18:27;18.33;;;11.30;;
10461;SDS011;5278;42.656;23.374;2023-03-19T01:20:55;17.67;;;11.57;;
10461;SDS011;5278;42.656;23.374;2023-03-19T01:23:22;17.00;;;11.20;;
10461;SDS011;5278;42.656;23.374;2023-03-19T01:25:49;19.63;;;11.60;;
10461;SDS011;5278;42.656;23.374;2023-03-19T01:28:16;18.23;;;11.00;;
10461;SDS011;5278;42.656;23.374;2023-03-19T01:30:43;19.07;;;11.43;;
10461;SDS011;5278;42.656;23.374;2023-03-19T01:33:12;22.43;;;12.10;;
10461;SDS011;5278;42.656;23.374;2023-03-19T01:35:38;13.60;;;9.40;;
10461;SDS011;5278;42.656;23.374;2023-03-19T01:38:05;17.80;;;10.90;;
10461;SDS011;5278;42.656;23.374;2023-03-19T01:40:33;16.63;;;10.40;;
10461;SDS011;5278;42.656;23.374;2023-03-19T01:45:50;13.47;;;9.00;;
10461;SDS011;5278;42.656;23.374;2023-03-19T01:48:24;13.30;;;9.70;;
10461;SDS011;5278;42.656;23.374;2023-03-19T01:50:57;11.77;;;8.27;;
10461;SDS011;5278;42.656;23.374;2023-03-19T01:53:27;13.27;;;9.13;;
10461;SDS011;5278;42.656;23.374;2023-03-19T01:55:58;16.33;;;9.50;;
10461;SDS011;5278;42.656;23.374;2023-03-19T01:58:32;14.03;;;9.67;;
10461;SDS011;5278;42.656;23.374;2023-03-19T02:00:59;11.43;;;8.33;;
10461;SDS011;5278;42.656;23.374;2023-03-19T02:03:29;16.27;;;9.03;;
10461;SDS011;5278;42.656;23.374;2023-03-19T02:05:56;14.07;;;8.30;;
10461;SDS011;5278;42.656;23.374;2023-03-19T02:08:25;13.10;;;9.20;;
10461;SDS011;5278;42.656;23.374;2023-03-19T02:10:54;17.37;;;10.67;;
10461;SDS011;5278;42.656;23.374;2023-03-19T02:13:24;15.67;;;9.33;;
10461;SDS011;5278;42.656;23.374;2023-03-19T02:15:51;19.33;;;10.27;;
10461;SDS011;5278;42.656;23.374;2023-03-19T02:18:18;21.60;;;9.93;;
10461;SDS011;5278;42.656;23.374;2023-03-19T02:20:49;15.33;;;11.07;;
10461;SDS011;5278;42.656;23.374;2023-03-19T02:23:20;17.33;;;13.17;;
10461;SDS011;5278;42.656;23.374;2023-03-19T02:28:42;18.00;;;10.87;;
10461;SDS011;5278;42.656;23.374;2023-03-19T02:31:12;17.37;;;10.17;;
10461;SDS011;5278;42.656;23.374;2023-03-19T02:33:40;16.57;;;10.40;;
10461;SDS011;5278;42.656;23.374;2023-03-19T02:36:08;18.30;;;11.17;;
10461;SDS011;5278;42.656;23.374;2023-03-19T02:38:38;13.47;;;9.30;;
10461;SDS011;5278;42.656;23.374;2023-03-19T02:41:08;15.77;;;8.83;;
10461;SDS011;5278;42.656;23.374;2023-03-19T02:43:37;8.70;;;6.33;;
10461;SDS011;5278;42.656;23.374;2023-03-19T02:46:07;10.20;;;5.83;;
10461;SDS011;5278;42.656;23.374;2023-03-19T02:48:36;8.27;;;5.27;;
10461;SDS011;5278;42.656;23.374;2023-03-19T02:51:03;7.20;;;5.23;;
10461;SDS011;5278;42.656;23.374;2023-03-19T02:53:31;8.10;;;4.90;;
10461;SDS011;5278;42.656;23.374;2023-03-19T02:55:59;10.13;;;5.57;;
10461;SDS011;5278;42.656;23.374;2023-03-19T02:58:26;9.10;;;5.03;;
10461;SDS011;5278;42.656;23.374;2023-03-19T03:00:54;7.47;;;5.97;;
10461;SDS011;5278;42.656;23.374;2023-03-19T03:03:21;9.90;;;6.30;;
10461;SDS011;5278;42.656;23.374;2023-03-19T03:05:48;12.77;;;8.27;;
10461;SDS011;5278;42.656;23.374;2023-03-19T03:08:15;15.63;;;8.87;;
10461;SDS011;5278;42.656;23.374;2023-03-19T03:10:42;12.77;;;7.67;;
10461;SDS011;5278;42.656;23.374;2023-03-19T03:13:10;11.93;;;8.63;;
10461;SDS011;5278;42.656;23.374;2023-03-19T03:15:37;13.43;;;9.30;;
10461;SDS011;5278;42.656;23.374;2023-03-19T03:18:06;18.30;;;9.03;;
10461;SDS011;5278;42.656;23.374;2023-03-19T03:20:33;14.10;;;8.90;;
10461;SDS011;5278;42.656;23.374;2023-03-19T03:23:00;11.70;;;9.43;;
10461;SDS011;5278;42.656;23.374;2023-03-19T03:25:31;16.53;;;9.50;;
10461;SDS011;5278;42.656;23.374;2023-03-19T03:27:59;14.60;;;10.33;;
10461;SDS011;5278;42.656;23.374;2023-03-19T03:30:26;16.77;;;9.57;;
10461;SDS011;5278;42.656;23.374;2023-03-19T03:32:53;17.20;;;10.10;;
10461;SDS011;5278;42.656;23.374;2023-03-19T03:35:22;17.40;;;10.53;;
10461;SDS011;5278;42.656;23.374;2023-03-19T03:37:48;23.43;;;12.47;;
10461;SDS011;5278;42.656;23.374;2023-03-19T03:40:16;19.43;;;12.13;;
10461;SDS011;5278;42.656;23.374;2023-03-19T03:42:44;17.47;;;11.40;;
10461;SDS011;5278;42.656;23.374;2023-03-19T03:45:11;14.53;;;9.90;;
10461;SDS011;5278;42.656;23.374;2023-03-19T03:47:39;15.87;;;10.60;;
10461;SDS011;5278;42.656;23.374;2023-03-19T03:50:07;17.20;;;9.50;;
10461;SDS011;5278;42.656;23.374;2023-03-19T03:52:36;14.17;;;10.67;;
10461;SDS011;5278;42.656;23.374;2023-03-19T03:55:03;18.20;;;11.60;;
10461;SDS011;5278;42.656;23.374;2023-03-19T03:57:31;21.17;;;11.63;;
10461;SDS011;5278;42.656;23.374;2023-03-19T03:59:58;17.53;;;11.47;;
10461;SDS011;5278;42.656;23.374;2023-03-19T04:02:25;15.57;;;10.43;;
10461;SDS011;5278;42.656;23.374;2023-03-19T04:04:53;16.27;;;10.53;;
10461;SDS011;5278;42.656;23.374;2023-03-19T04:07:21;16.07;;;10.83;;
10461;SDS011;5278;42.656;23.374;2023-03-19T04:09:49;20.43;;;10.40;;
10461;SDS011;5278;42.656;23.374;2023-03-19T04:12:16;18.67;;;11.10;;
10461;SDS011;5278;42.656;23.374;2023-03-19T04:14:43;18.00;;;11.33;;
10461;SDS011;5278;42.656;23.374;2023-03-19T04:17:10;16.00;;;9.50;;
10461;SDS011;5278;42.656;23.374;2023-03-19T04:19:37;16.53;;;10.23;;
10461;SDS011;5278;42.656;23.374;2023-03-19T04:22:04;18.67;;;11.17;;
10461;SDS011;5278;42.656;23.374;2023-03-19T04:24:31;14.57;;;11.07;;
10461;SDS011;5278;42.656;23.374;2023-03-19T04:27:00;17.00;;;11.20;;
10461;SDS011;5278;42.656;23.374;2023-03-19T04:29:27;20.03;;;11.60;;
10461;SDS011;5278;42.656;23.374;2023-03-19T04:31:54;12.37;;;9.20;;
10461;SDS011;5278;42.656;23.374;2023-03-19T04:34:21;10.53;;;6.57;;
10461;SDS011;5278;42.656;23.374;2023-03-19T04:36:48;7.20;;;5.17;;
10461;SDS011;5278;42.656;23.374;2023-03-19T04:39:15;7.53;;;5.57;;
10461;SDS011;5278;42.656;23.374;2023-03-19T04:41:43;8.57;;;6.37;;
10461;SDS011;5278;42.656;23.374;2023-03-19T04:44:12;8.73;;;5.53;;
10461;SDS011;5278;42.656;23.374;2023-03-19T04:46:38;11.60;;;5.93;;
10461;SDS011;5278;42.656;23.374;2023-03-19T04:49:06;10.67;;;5.73;;
10461;SDS011;5278;42.656;23.374;2023-03-19T04:51:33;9.80;;;6.13;;
10461;SDS011;5278;42.656;23.374;2023-03-19T04:54:00;9.93;;;5.97;;
10461;SDS011;5278;42.656;23.374;2023-03-19T04:56:28;9.50;;;6.20;;
10461;SDS011;5278;42.656;23.374;2023-03-19T04:58:54;9.97;;;6.17;;
10461;SDS011;5278;42.656;23.374;2023-03-19T05:01:23;7.53;;;4.90;;
10461;SDS011;5278;42.656;23.374;2023-03-19T05:03:51;6.00;;;3.83;;
10461;SDS011;5278;42.656;23.374;2023-03-19T05:06:18;5.50;;;4.10;;
10461;SDS011;5278;42.656;23.374;2023-03-19T05:08:45;5.37;;;4.50;;
10461;SDS011;5278;42.656;23.374;2023-03-19T05:11:12;6.77;;;4.70;;
10461;SDS011;5278;42.656;23.374;2023-03-19T05:13:39;4.97;;;4.07;;
10461;SDS011;5278;42.656;23.374;2023-03-19T05:16:06;7.30;;;4.90;;
10461;SDS011;5278;42.656;23.374;2023-03-19T05:18:35;7.43;;;5.17;;
10461;SDS011;5278;42.656;23.374;2023-03-19T05:21:03;6.63;;;4.70;;
10461;SDS011;5278;42.656;23.374;2023-03-19T05:23:31;7.33;;;4.93;;
10461;SDS011;5278;42.656;23.374;2023-03-19T05:25:58;9.77;;;5.80;;
10461;SDS011;5278;42.656;23.374;2023-03-19T05:28:26;9.37;;;5.63;;
10461;SDS011;5278;42.656;23.374;2023-03-19T05:30:54;6.83;;;5.63;;
10461;SDS011;5278;42.656;23.374;2023-03-19T05:33:21;7.97;;;6.10;;
10461;SDS011;5278;42.656;23.374;2023-03-19T05:35:49;8.40;;;6.27;;
10461;SDS011;5278;42.656;23.374;2023-03-19T05:38:17;10.80;;;6.97;;
10461;SDS011;5278;42.656;23.374;2023-03-19T05:40:44;12.47;;;6.87;;
10461;SDS011;5278;42.656;23.374;2023-03-19T05:43:11;9.67;;;6.80;;
10461;SDS011;5278;42.656;23.374;2023-03-19T05:45:38;12.40;;;7.97;;
10461;SDS011;5278;42.656;23.374;2023-03-19T05:48:06;11.47;;;7.87;;
10461;SDS011;5278;42.656;23.374;2023-03-19T05:50:33;11.77;;;8.67;;
10461;SDS011;5278;42.656;23.374;2023-03-19T05:53:03;15.50;;;8.60;;
10461;SDS011;5278;42.656;23.374;2023-03-19T05:55:31;12.00;;;8.57;;
10461;SDS011;5278;42.656;23.374;2023-03-19T05:57:58;11.10;;;8.23;;
10461;SDS011;5278;42.656;23.374;2023-03-19T06:00:27;11.63;;;8.13;;
10461;SDS011;5278;42.656;23.374;2023-03-19T06:02:54;11.50;;;7.97;;
10461;SDS011;5278;42.656;23.374;2023-03-19T06:05:21;10.73;;;8.47;;
10461;SDS011;5278;42.656;23.374;2023-03-19T06:07:48;13.53;;;8.50;;
10461;SDS011;5278;42.656;23.374;2023-03-19T06:10:17;9.83;;;7.20;;
10461;SDS011;5278;42.656;23.374;2023-03-19T06:12:43;11.13;;;7.47;;
10461;SDS011;5278;42.656;23.374;2023-03-19T06:15:10;11.70;;;9.17;;
10461;SDS011;5278;42.656;23.374;2023-03-19T06:17:38;9.90;;;8.30;;
10461;SDS011;5278;42.656;23.374;2023-03-19T06:20:05;10.23;;;7.63;;
10461;SDS011;5278;42.656;23.374;2023-03-19T06:22:33;9.63;;;6.93;;
10461;SDS011;5278;42.656;23.374;2023-03-19T06:25:00;10.53;;;7.30;;
10461;SDS011;5278;42.656;23.374;2023-03-19T06:27:28;14.47;;;9.50;;
10461;SDS011;5278;42.656;23.374;2023-03-19T06:29:55;9.30;;;7.13;;
10461;SDS011;5278;42.656;23.374;2023-03-19T06:32:22;11.73;;;7.53;;
10461;SDS011;5278;42.656;23.374;2023-03-19T06:34:49;9.93;;;8.13;;
10461;SDS011;5278;42.656;23.374;2023-03-19T06:37:23;11.23;;;8.37;;
10461;SDS011;5278;42.656;23.374;2023-03-19T06:39:52;10.83;;;7.13;;
10461;SDS011;5278;42.656;23.374;2023-03-19T06:42:20;9.17;;;7.27;;
10461;SDS011;5278;42.656;23.374;2023-03-19T06:44:48;11.67;;;8.07;;
10461;SDS011;5278;42.656;23.374;2023-03-19T06:47:15;10.57;;;7.57;;
10461;SDS011;5278;42.656;23.374;2023-03-19T06:49:42;10.30;;;7.87;;
10461;SDS011;5278;42.656;23.374;2023-03-19T06:52:10;13.33;;;9.17;;
10461;SDS011;5278;42.656;23.374;2023-03-19T06:54:37;11.50;;;8.60;;
10461;SDS011;5278;42.656;23.374;2023-03-19T06:57:03;10.73;;;7.33;;
10461;SDS011;5278;42.656;23.374;2023-03-19T06:59:31;8.63;;;6.87;;
10461;SDS011;5278;42.656;23.374;2023-03-19T07:02:00;11.47;;;7.17;;
10461;SDS011;5278;42.656;23.374;2023-03-19T07:04:28;9.83;;;6.80;;
10461;SDS011;5278;42.656;23.374;2023-03-19T07:06:56;9.23;;;7.03;;
10461;SDS011;5278;42.656;23.374;2023-03-19T07:09:25;8.67;;;6.93;;
10461;SDS011;5278;42.656;23.374;2023-03-19T07:11:52;10.23;;;7.47;;
10461;SDS011;5278;42.656;23.374;2023-03-19T07:14:19;7.90;;;6.53;;
10461;SDS011;5278;42.656;23.374;2023-03-19T07:16:46;8.87;;;7.20;;
10461;SDS011;5278;42.656;23.374;2023-03-19T07:19:14;8.23;;;6.93;;
10461;SDS011;5278;42.656;23.374;2023-03-19T07:21:41;9.67;;;6.93;;
10461;SDS011;5278;42.656;23.374;2023-03-19T07:24:08;9.90;;;6.40;;
10461;SDS011;5278;42.656;23.374;2023-03-19T07:26:35;9.80;;;7.33;;
10461;SDS011;5278;42.656;23.374;2023-03-19T07:29:02;12.10;;;7.27;;
10461;SDS011;5278;42.656;23.374;2023-03-19T07:31:29;9.70;;;7.33;;
10461;SDS011;5278;42.656;23.374;2023-03-19T07:33:56;8.10;;;6.10;;
10461;SDS011;5278;42.656;23.374;2023-03-19T07:36:24;8.57;;;6.73;;
10461;SDS011;5278;42.656;23.374;2023-03-19T07:38:52;10.80;;;7.17;;
10461;SDS011;5278;42.656;23.374;2023-03-19T07:41:19;9.60;;;7.47;;
10461;SDS011;5278;42.656;23.374;2023-03-19T07:43:46;12.33;;;8.30;;
10461;SDS011;5278;42.656;23.374;2023-03-19T07:46:14;10.43;;;7.73;;
10461;SDS011;5278;42.656;23.374;2023-03-19T07:48:42;8.37;;;7.50;;
10461;SDS011;5278;42.656;23.374;2023-03-19T07:51:09;10.97;;;8.20;;
10461;SDS011;5278;42.656;23.374;2023-03-19T07:53:37;11.17;;;8.20;;
10461;SDS011;5278;42.656;23.374;2023-03-19T07:56:05;9.03;;;8.00;;
10461;SDS011;5278;42.656;23.374;2023-03-19T07:58:32;9.63;;;8.50;;
10461;SDS011;5278;42.656;23.374;2023-03-19T08:00:59;9.10;;;8.07;;
10461;SDS011;5278;42.656;23.374;2023-03-19T08:03:26;10.07;;;7.90;;
10461;SDS011;5278;42.656;23.374;2023-03-19T08:05:53;8.93;;;8.03;;
10461;SDS011;5278;42.656;23.374;2023-03-19T08:08:20;9.80;;;8.27;;
10461;SDS011;5278;42.656;23.374;2023-03-19T08:10:51;9.80;;;8.10;;
10461;SDS011;5278;42.656;23.374;2023-03-19T08:13:18;12.90;;;9.73;;
10461;SDS011;5278;42.656;23.374;2023-03-19T08:15:48;13.13;;;8.83;;
10461;SDS011;5278;42.656;23.374;2023-03-19T08:18:16;10.67;;;9.23;;
10461;SDS011;5278;42.656;23.374;2023-03-19T08:20:43;12.10;;;7.93;;
10461;SDS011;5278;42.656;23.374;2023-03-19T08:23:11;10.73;;;8.47;;
10461;SDS011;5278;42.656;23.374;2023-03-19T08:25:38;9.60;;;7.90;;
10461;SDS011;5278;42.656;23.374;2023-03-19T08:28:06;9.93;;;8.00;;
10461;SDS011;5278;42.656;23.374;2023-03-19T08:30:34;10.50;;;7.97;;
10461;SDS011;5278;42.656;23.374;2023-03-19T08:33:02;9.90;;;7.93;;
10461;SDS011;5278;42.656;23.374;2023-03-19T08:35:35;9.90;;;8.50;;
10461;SDS011;5278;42.656;23.374;2023-03-19T08:38:03;8.90;;;8.00;;
10461;SDS011;5278;42.656;23.374;2023-03-19T08:40:31;8.87;;;7.97;;
10461;SDS011;5278;42.656;23.374;2023-03-19T08:42:59;10.17;;;8.37;;
10461;SDS011;5278;42.656;23.374;2023-03-19T08:45:27;8.70;;;7.50;;
10461;SDS011;5278;42.656;23.374;2023-03-19T08:47:54;10.17;;;7.87;;
10461;SDS011;5278;42.656;23.374;2023-03-19T08:50:23;9.63;;;7.90;;
10461;SDS011;5278;42.656;23.374;2023-03-19T08:52:50;9.53;;;8.07;;
10461;SDS011;5278;42.656;23.374;2023-03-19T08:55:17;9.23;;;8.30;;
10461;SDS011;5278;42.656;23.374;2023-03-19T08:57:44;8.30;;;6.80;;
10461;SDS011;5278;42.656;23.374;2023-03-19T09:00:12;8.87;;;7.23;;
10461;SDS011;5278;42.656;23.374;2023-03-19T09:02:42;8.70;;;7.50;;
10461;SDS011;5278;42.656;23.374;2023-03-19T09:05:08;8.30;;;6.83;;
10461;SDS011;5278;42.656;23.374;2023-03-19T09:07:35;8.43;;;6.50;;
10461;SDS011;5278;42.656;23.374;2023-03-19T09:10:03;7.50;;;4.97;;
10461;SDS011;5278;42.656;23.374;2023-03-19T09:12:33;5.70;;;5.20;;
10461;SDS011;5278;42.656;23.374;2023-03-19T09:15:00;8.70;;;5.87;;
10461;SDS011;5278;42.656;23.374;2023-03-19T09:17:28;8.37;;;6.67;;
10461;SDS011;5278;42.656;23.374;2023-03-19T09:19:56;8.10;;;6.73;;
10461;SDS011;5278;42.656;23.374;2023-03-19T09:22:23;7.90;;;6.73;;
10461;SDS011;5278;42.656;23.374;2023-03-19T09:24:51;7.43;;;6.60;;
10461;SDS011;5278;42.656;23.374;2023-03-19T09:27:20;8.30;;;7.17;;
10461;SDS011;5278;42.656;23.374;2023-03-19T09:29:47;7.07;;;6.33;;
10461;SDS011;5278;42.656;23.374;2023-03-19T09:32:14;7.73;;;5.90;;
10461;SDS011;5278;42.656;23.374;2023-03-19T09:34:41;9.40;;;5.97;;
10461;SDS011;5278;42.656;23.374;2023-03-19T09:37:10;7.97;;;6.60;;
10461;SDS011;5278;42.656;23.374;2023-03-19T09:39:37;8.77;;;6.73;;
10461;SDS011;5278;42.656;23.374;2023-03-19T09:42:09;7.97;;;7.30;;
10461;SDS011;5278;42.656;23.374;2023-03-19T09:44:45;9.60;;;6.93;;
10461;SDS011;5278;42.656;23.374;2023-03-19T09:47:21;14.87;;;7.53;;
10461;SDS011;5278;42.656;23.374;2023-03-19T09:49:53;10.00;;;7.33;;
10461;SDS011;5278;42.656;23.374;2023-03-19T09:52:30;8.33;;;7.40;;
10461;SDS011;5278;42.656;23.374;2023-03-19T09:55:08;8.03;;;6.83;;
10461;SDS011;5278;42.656;23.374;2023-03-19T09:57:43;7.90;;;7.20;;
10461;SDS011;5278;42.656;23.374;2023-03-19T10:00:13;9.03;;;7.27;;
10461;SDS011;5278;42.656;23.374;2023-03-19T10:02:48;11.10;;;8.03;;
10461;SDS011;5278;42.656;23.374;2023-03-19T10:05:22;8.82;;;7.65;;
10461;SDS011;5278;42.656;23.374;2023-03-19T10:10:59;8.47;;;7.63;;
10461;SDS011;5278;42.656;23.374;2023-03-19T10:13:43;8.20;;;7.40;;
10461;SDS011;5278;42.656;23.374;2023-03-19T10:16:23;9.07;;;8.17;;
10461;SDS011;5278;42.656;23.374;2023-03-19T10:18:53;8.67;;;7.80;;
10461;SDS011;5278;42.656;23.374;2023-03-19T10:21:24;8.83;;;7.97;;
10461;SDS011;5278;42.656;23.374;2023-03-19T10:23:58;8.40;;;7.37;;
10461;SDS011;5278;42.656;23.374;2023-03-19T10:26:28;9.57;;;7.57;;
10461;SDS011;5278;42.656;23.374;2023-03-19T10:29:00;8.13;;;7.32;;
10461;SDS011;5278;42.656;23.374;2023-03-19T10:31:36;8.43;;;7.03;;
10461;SDS011;5278;42.656;23.374;2023-03-19T10:34:21;10.13;;;7.47;;
10461;SDS011;5278;42.656;23.374;2023-03-19T10:36:57;8.15;;;7.30;;
10461;SDS011;5278;42.656;23.374;2023-03-19T10:39:27;8.55;;;7.05;;
10461;SDS011;5278;42.656;23.374;2023-03-19T10:41:56;7.83;;;7.03;;
10461;SDS011;5278;42.656;23.374;2023-03-19T10:44:33;7.53;;;6.57;;
10461;SDS011;5278;42.656;23.374;2023-03-19T10:47:08;12.47;;;8.47;;
10461;SDS011;5278;42.656;23.374;2023-03-19T10:49:36;8.30;;;7.47;;
10461;SDS011;5278;42.656;23.374;2023-03-19T10:52:04;9.27;;;6.90;;
10461;SDS011;5278;42.656;23.374;2023-03-19T10:54:43;8.50;;;6.90;;
10461;SDS011;5278;42.656;23.374;2023-03-19T10:57:20;7.87;;;6.67;;
10461;SDS011;5278;42.656;23.374;2023-03-19T10:59:49;8.10;;;6.83;;
10461;SDS011;5278;42.656;23.374;2023-03-19T11:02:17;9.77;;;7.47;;
10461;SDS011;5278;42.656;23.374;2023-03-19T11:04:46;8.47;;;7.30;;
10461;SDS011;5278;42.656;23.374;2023-03-19T11:07:16;7.73;;;6.77;;
10461;SDS011;5278;42.656;23.374;2023-03-19T11:09:47;8.27;;;7.43;;
10461;SDS011;5278;42.656;23.374;2023-03-19T11:12:16;12.20;;;8.20;;
10461;SDS011;5278;42.656;23.374;2023-03-19T11:14:46;7.93;;;6.43;;
10461;SDS011;5278;42.656;23.374;2023-03-19T11:17:19;9.90;;;8.17;;
10461;SDS011;5278;42.656;23.374;2023-03-19T11:19:51;8.73;;;7.03;;
10461;SDS011;5278;42.656;23.374;2023-03-19T11:22:21;8.10;;;6.47;;
10461;SDS011;5278;42.656;23.374;2023-03-19T11:24:52;7.73;;;6.93;;
10461;SDS011;5278;42.656;23.374;2023-03-19T11:27:27;6.83;;;6.13;;
10461;SDS011;5278;42.656;23.374;2023-03-19T11:29:56;7.30;;;6.57;;
10461;SDS011;5278;42.656;23.374;2023-03-19T11:32:38;5.80;;;4.97;;
10461;SDS011;5278;42.656;23.374;2023-03-19T11:35:23;6.13;;;5.53;;
10461;SDS011;5278;42.656;23.374;2023-03-19T11:37:55;10.07;;;6.37;;
10461;SDS011;5278;42.656;23.374;2023-03-19T11:40:32;7.43;;;6.57;;
10461;SDS011;5278;42.656;23.374;2023-03-19T11:43:05;6.93;;;6.00;;
10461;SDS011;5278;42.656;23.374;2023-03-19T11:45:54;6.57;;;5.87;;
10461;SDS011;5278;42.656;23.374;2023-03-19T11:48:32;10.63;;;6.17;;
10461;SDS011;5278;42.656;23.374;2023-03-19T11:51:06;8.30;;;5.63;;
10461;SDS011;5278;42.656;23.374;2023-03-19T11:53:37;7.00;;;5.10;;
10461;SDS011;5278;42.656;23.374;2023-03-19T11:56:14;7.37;;;6.17;;
10461;SDS011;5278;42.656;23.374;2023-03-19T11:58:50;6.53;;;5.67;;
10461;SDS011;5278;42.656;23.374;2023-03-19T12:01:41;8.80;;;6.37;;
10461;SDS011;5278;42.656;23.374;2023-03-19T12:04:42;7.20;;;6.47;;
10461;SDS011;5278;42.656;23.374;2023-03-19T12:07:29;6.63;;;5.70;;
10461;SDS011;5278;42.656;23.374;2023-03-19T12:10:06;6.23;;;5.63;;
10461;SDS011;5278;42.656;23.374;2023-03-19T12:12:54;6.77;;;5.10;;
10461;SDS011;5278;42.656;23.374;2023-03-19T12:15:33;7.57;;;5.30;;
10461;SDS011;5278;42.656;23.374;2023-03-19T12:18:07;8.93;;;5.80;;
10461;SDS011;5278;42.656;23.374;2023-03-19T12:20:49;6.17;;;5.43;;
10461;SDS011;5278;42.656;23.374;2023-03-19T12:23:26;7.13;;;6.03;;
10461;SDS011;5278;42.656;23.374;2023-03-19T12:26:02;6.57;;;5.67;;
10461;SDS011;5278;42.656;23.374;2023-03-19T12:28:38;6.03;;;5.37;;
10461;SDS011;5278;42.656;23.374;2023-03-19T12:34:22;5.70;;;4.80;;
10461;SDS011;5278;42.656;23.374;2023-03-19T12:37:10;6.13;;;5.27;;
10461;SDS011;5278;42.656;23.374;2023-03-19T12:39:45;6.60;;;5.13;;
10461;SDS011;5278;42.656;23.374;2023-03-19T12:42:18;6.40;;;4.70;;
10461;SDS011;5278;42.656;23.374;2023-03-19T12:44:53;7.23;;;4.90;;
10461;SDS011;5278;42.656;23.374;2023-03-19T12:47:24;5.50;;;4.80;;
10461;SDS011;5278;42.656;23.374;2023-03-19T12:49:56;5.67;;;4.73;;
10461;SDS011;5278;42.656;23.374;2023-03-19T12:52:27;7.13;;;4.63;;
10461;SDS011;5278;42.656;23.374;2023-03-19T12:55:00;5.80;;;4.67;;
10461;SDS011;5278;42.656;23.374;2023-03-19T12:57:33;6.40;;;4.47;;
10461;SDS011;5278;42.656;23.374;2023-03-19T13:00:09;5.60;;;4.53;;
10461;SDS011;5278;42.656;23.374;2023-03-19T13:02:43;7.60;;;5.23;;
10461;SDS011;5278;42.656;23.374;2023-03-19T13:05:16;7.77;;;5.07;;
10461;SDS011;5278;42.656;23.374;2023-03-19T13:07:59;8.20;;;5.00;;
10461;SDS011;5278;42.656;23.374;2023-03-19T13:10:32;5.17;;;4.63;;
10461;SDS011;5278;42.656;23.374;2023-03-19T13:13:01;5.87;;;4.23;;
10461;SDS011;5278;42.656;23.374;2023-03-19T13:15:40;6.13;;;4.60;;
10461;SDS011;5278;42.656;23.374;2023-03-19T13:18:14;6.20;;;4.73;;
10461;SDS011;5278;42.656;23.374;2023-03-19T13:20:55;6.53;;;4.17;;
10461;SDS011;5278;42.656;23.374;2023-03-19T13:23:32;5.80;;;3.90;;
10461;SDS011;5278;42.656;23.374;2023-03-19T13:26:03;8.50;;;4.07;;
10461;SDS011;5278;42.656;23.374;2023-03-19T13:28:34;5.50;;;4.23;;
10461;SDS011;5278;42.656;23.374;2023-03-19T13:31:05;6.53;;;3.70;;
10461;SDS011;5278;42.656;23.374;2023-03-19T13:33:33;6.17;;;4.40;;
10461;SDS011;5278;42.656;23.374;2023-03-19T13:36:03;6.30;;;3.87;;
10461;SDS011;5278;42.656;23.374;2023-03-19T13:38:33;4.70;;;3.90;;
10461;SDS011;5278;42.656;23.374;2023-03-19T13:41:22;4.30;;;3.90;;
10461;SDS011;5278;42.656;23.374;2023-03-19T13:44:32;5.67;;;4.13;;
10461;SDS011;5278;42.656;23.374;2023-03-19T13:47:11;4.23;;;3.83;;
10461;SDS011;5278;42.656;23.374;2023-03-19T13:52:52;5.53;;;3.73;;
10461;SDS011;5278;42.656;23.374;2023-03-19T13:55:29;6.77;;;4.47;;
10461;SDS011;5278;42.656;23.374;2023-03-19T13:58:14;5.00;;;3.63;;
10461;SDS011;5278;42.656;23.374;2023-03-19T14:04:14;3.70;;;3.40;;
10461;SDS011;5278;42.656;23.374;2023-03-19T14:06:44;7.83;;;3.63;;
10461;SDS011;5278;42.656;23.374;2023-03-19T14:09:26;5.73;;;4.20;;
10461;SDS011;5278;42.656;23.374;2023-03-19T14:12:22;5.03;;;3.10;;
10461;SDS011;5278;42.656;23.374;2023-03-19T14:14:59;3.47;;;2.80;;
10461;SDS011;5278;42.656;23.374;2023-03-19T14:17:31;5.10;;;3.27;;
10461;SDS011;5278;42.656;23.374;2023-03-19T14:20:02;4.53;;;3.43;;
10461;SDS011;5278;42.656;23.374;2023-03-19T14:22:52;4.40;;;2.93;;
10461;SDS011;5278;42.656;23.374;2023-03-19T14:25:22;4.10;;;3.00;;
10461;SDS011;5278;42.656;23.374;2023-03-19T14:27:52;5.53;;;3.53;;
10461;SDS011;5278;42.656;23.374;2023-03-19T14:30:28;3.40;;;3.10;;
10461;SDS011;5278;42.656;23.374;2023-03-19T14:32:58;4.10;;;3.17;;
10461;SDS011;5278;42.656;23.374;2023-03-19T14:35:35;5.37;;;3.13;;
10461;SDS011;5278;42.656;23.374;2023-03-19T14:38:09;3.63;;;2.93;;
10461;SDS011;5278;42.656;23.374;2023-03-19T14:40:41;5.07;;;3.03;;
10461;SDS011;5278;42.656;23.374;2023-03-19T14:43:13;6.00;;;3.17;;
10461;SDS011;5278;42.656;23.374;2023-03-19T14:45:51;3.13;;;2.57;;
10461;SDS011;5278;42.656;23.374;2023-03-19T14:51:51;3.60;;;2.93;;
10461;SDS011;5278;42.656;23.374;2023-03-19T14:54:27;3.40;;;2.77;;
10461;SDS011;5278;42.656;23.374;2023-03-19T14:57:04;3.70;;;2.67;;
10461;SDS011;5278;42.656;23.374;2023-03-19T14:59:35;7.07;;;3.53;;
10461;SDS011;5278;42.656;23.374;2023-03-19T15:02:03;3.10;;;2.80;;
10461;SDS011;5278;42.656;23.374;2023-03-19T15:04:31;3.67;;;3.10;;
10461;SDS011;5278;42.656;23.374;2023-03-19T15:07:00;22.57;;;16.73;;
10461;SDS011;5278;42.656;23.374;2023-03-19T15:09:28;5.50;;;4.27;;
10461;SDS011;5278;42.656;23.374;2023-03-19T15:12:05;10.43;;;4.70;;
10461;SDS011;5278;42.656;23.374;2023-03-19T15:14:53;5.13;;;4.40;;
10461;SDS011;5278;42.656;23.374;2023-03-19T15:17:42;4.03;;;3.43;;
10461;SDS011;5278;42.656;23.374;2023-03-19T15:20:12;7.23;;;2.93;;